Saint Elizabeth, Missouri
Current Conditions -  °F | °C
As of 11:55 AM on Saturday 20 Dec 2014 (Local Time) from KAIZ Reporting Station
Overcast Overcast  
Wind Chill: 38°   Ceiling: 1700
Heat Index: 43°   Visibility: 10mi
Dew Point: 34°   Wind: 8mph
Humidity: 70%   Direction: 210°SSW
Pressure: 30.2"   Gusts: NA
Location:  38.26°N, 92.27°W
Report Text: KAIZ 201755Z AUTO 21007KT 10SM OVC017 06/01 A3020 RMK AO1 10060 20030 57014
Loading
Personal Weather Stations






























Interactive Weather Map New forecast layout! Learn more

10-Day Weather Forecast

Advertisements
Track Severe Weather on mobile